Time;durP1;ratioP1;P1;durP2;ratioP2;P2;SDS_P1;SDS_P2;PMS_P1;PMS_P2;Temp;Humidity;BMP_temperature;BMP_pressure;BME280_temperature;BME280_humidity;BME280_pressure;Samples;Min_cycle;Max_cycle;Signal;HPM_P1;HPM_P2
2023/01/05 00:00:31;;;;;;;2.60;1.80;;;;;;;;;;5032047;28;20239;-84
2023/01/05 00:02:58;;;;;;;1.80;1.70;;;;;;;;;;5032365;28;20210;-84
2023/01/05 00:05:25;;;;;;;1.83;1.73;;;;;;;;;;5031789;28;20238;-84
2023/01/05 00:07:52;;;;;;;2.03;1.93;;;;;;;;;;5031734;28;20206;-84
2023/01/05 00:24:06;;;;;;;2.10;1.90;;;;;;;;;;5031705;28;20309;-84
2023/01/05 00:26:33;;;;;;;1.53;1.53;;;;;;;;;;5031369;28;20234;-84
2023/01/05 00:29:01;;;;;;;1.40;1.40;;;;;;;;;;5031080;28;20227;-84
2023/01/05 00:31:28;;;;;;;1.40;1.40;;;;;;;;;;5031352;28;20248;-84
2023/01/05 00:33:55;;;;;;;1.40;1.40;;;;;;;;;;5031691;28;20217;-84
2023/01/05 00:36:22;;;;;;;2.23;1.67;;;;;;;;;;5031292;28;20710;-84
2023/01/05 00:38:49;;;;;;;1.50;1.40;;;;;;;;;;5035122;28;20222;-84
2023/01/05 00:41:16;;;;;;;1.50;1.50;;;;;;;;;;5035328;28;20602;-84
2023/01/05 00:43:43;;;;;;;1.43;1.33;;;;;;;;;;5035978;28;20257;-84
2023/01/05 00:46:12;;;;;;;1.50;1.50;;;;;;;;;;5035036;28;20234;-84
2023/01/05 00:48:39;;;;;;;1.40;1.40;;;;;;;;;;5035509;28;20255;-83
2023/01/05 00:51:06;;;;;;;1.30;1.30;;;;;;;;;;5034877;28;20726;-84
2023/01/05 00:53:33;;;;;;;1.30;1.30;;;;;;;;;;5035844;28;20207;-84
2023/01/05 00:56:00;;;;;;;1.37;1.33;;;;;;;;;;5035088;28;20234;-84
2023/01/05 00:58:27;;;;;;;1.00;1.00;;;;;;;;;;5035277;28;20276;-84
2023/01/05 01:00:54;;;;;;;1.17;1.17;;;;;;;;;;5034936;28;20231;-84
2023/01/05 01:03:22;;;;;;;1.00;1.00;;;;;;;;;;5035349;28;20206;-84
2023/01/05 01:05:56;;;;;;;1.20;1.20;;;;;;;;;;5034601;28;20238;-84
2023/01/05 01:08:23;;;;;;;1.30;1.30;;;;;;;;;;5035162;28;20199;-83
2023/01/05 01:10:50;;;;;;;1.03;1.03;;;;;;;;;;5034531;28;20233;-83
2023/01/05 01:13:17;;;;;;;1.20;1.20;;;;;;;;;;5034918;28;20838;-84
2023/01/05 01:15:44;;;;;;;1.90;1.20;;;;;;;;;;5034735;28;20230;-84
2023/01/05 01:18:11;;;;;;;1.10;1.10;;;;;;;;;;5035279;28;20214;-83
2023/01/05 01:20:40;;;;;;;1.13;1.13;;;;;;;;;;5034715;28;20241;-84
2023/01/05 01:23:07;;;;;;;1.50;1.27;;;;;;;;;;5034965;28;20206;-84
2023/01/05 01:25:34;;;;;;;1.40;1.30;;;;;;;;;;5034093;28;20288;-84
2023/01/05 01:28:01;;;;;;;1.20;1.20;;;;;;;;;;5035029;28;20206;-84
2023/01/05 01:30:28;;;;;;;1.30;1.20;;;;;;;;;;5034096;28;20242;-84
2023/01/05 01:32:55;;;;;;;1.20;1.20;;;;;;;;;;5034776;28;20400;-84
2023/01/05 01:35:22;;;;;;;1.30;1.30;;;;;;;;;;5034418;28;20783;-84
2023/01/05 01:37:51;;;;;;;1.20;1.20;;;;;;;;;;5035066;28;20210;-84
2023/01/05 01:40:18;;;;;;;1.20;1.20;;;;;;;;;;5034119;28;20737;-83
2023/01/05 01:42:45;;;;;;;1.20;1.20;;;;;;;;;;5034803;28;20207;-83
2023/01/05 01:45:19;;;;;;;1.20;1.20;;;;;;;;;;5034222;28;20233;-84
2023/01/05 01:47:47;;;;;;;1.40;1.40;;;;;;;;;;5034761;28;20286;-84
2023/01/05 01:50:16;;;;;;;1.47;1.47;;;;;;;;;;5033518;28;20231;-84
2023/01/05 01:52:44;;;;;;;1.30;1.30;;;;;;;;;;5034676;28;20218;-83
2023/01/05 01:55:12;;;;;;;1.30;1.30;;;;;;;;;;5034274;28;20207;-83
2023/01/05 01:57:39;;;;;;;1.20;1.20;;;;;;;;;;5034536;28;20207;-84
2023/01/05 02:00:07;;;;;;;1.07;1.07;;;;;;;;;;5033658;28;20241;-83
2023/01/05 02:02:35;;;;;;;1.20;1.20;;;;;;;;;;5034224;28;20203;-84
2023/01/05 02:05:04;;;;;;;1.10;1.10;;;;;;;;;;5033994;28;20229;-84
2023/01/05 02:07:33;;;;;;;1.20;1.20;;;;;;;;;;5033001;28;20302;-84
2023/01/05 02:10:00;;;;;;;0.90;0.90;;;;;;;;;;5034059;28;20745;-84
2023/01/05 02:12:37;;;;;;;1.10;1.10;;;;;;;;;;5034139;28;20269;-83
2023/01/05 02:15:08;;;;;;;1.07;1.07;;;;;;;;;;5033527;28;20214;-83
2023/01/05 02:17:39;;;;;;;1.10;1.10;;;;;;;;;;5034322;28;20195;-84
2023/01/05 02:20:24;;;;;;;1.10;1.10;;;;;;;;;;5033710;28;20310;-84
2023/01/05 02:23:02;;;;;;;1.27;1.27;;;;;;;;;;5034304;28;20202;-84
2023/01/05 02:25:47;;;;;;;1.60;1.10;;;;;;;;;;5033443;28;20242;-83
2023/01/05 02:28:21;;;;;;;2.10;1.17;;;;;;;;;;5033690;28;20302;-83
2023/01/05 02:31:13;;;;;;;1.40;1.20;;;;;;;;;;5033699;28;20234;-84
2023/01/05 02:34:01;;;;;;;1.20;1.20;;;;;;;;;;5033846;28;20202;-83
2023/01/05 02:36:30;;;;;;;1.70;1.23;;;;;;;;;;5033225;28;20282;-83
2023/01/05 02:38:59;;;;;;;1.53;1.20;;;;;;;;;;5033354;28;20222;-83
2023/01/05 02:41:30;;;;;;;1.10;1.10;;;;;;;;;;5033126;28;20296;-84
2023/01/05 02:43:57;;;;;;;3.67;1.80;;;;;;;;;;5033598;28;20199;-83
2023/01/05 02:46:25;;;;;;;1.37;1.17;;;;;;;;;;5032814;28;20245;-83
2023/01/05 02:48:53;;;;;;;2.43;1.43;;;;;;;;;;5033425;28;20443;-84
2023/01/05 02:51:23;;;;;;;1.47;1.47;;;;;;;;;;5032914;28;20611;-83
2023/01/05 02:53:52;;;;;;;1.80;1.70;;;;;;;;;;5033244;28;20203;-83
2023/01/05 02:56:22;;;;;;;5.60;2.10;;;;;;;;;;5032553;28;20285;-84
2023/01/05 02:58:51;;;;;;;2.90;2.10;;;;;;;;;;5033234;28;20304;-84
2023/01/05 03:01:20;;;;;;;3.93;2.10;;;;;;;;;;5032485;28;20234;-84
2023/01/05 03:03:51;;;;;;;3.13;2.90;;;;;;;;;;5032822;28;20219;-84
2023/01/05 03:06:21;;;;;;;1.97;1.80;;;;;;;;;;5032343;28;20250;-83
2023/01/05 03:08:49;;;;;;;1.70;1.60;;;;;;;;;;5033273;28;20284;-84
2023/01/05 03:14:04;;;;;;;2.67;1.40;;;;;;;;;;5032865;28;20182;-84
2023/01/05 03:16:34;;;;;;;3.47;1.57;;;;;;;;;;5032340;28;20239;-84
2023/01/05 03:35:41;;;;;;;4.90;1.70;;;;;;;;;;5031825;28;20237;-84
2023/01/05 03:38:11;;;;;;;6.23;1.97;;;;;;;;;;5032246;28;20225;-83
2023/01/05 03:40:39;;;;;;;5.27;1.73;;;;;;;;;;5031919;28;20273;-83
2023/01/05 03:43:06;;;;;;;6.90;2.07;;;;;;;;;;5032550;28;20687;-84
2023/01/05 03:45:35;;;;;;;12.47;2.67;;;;;;;;;;5031471;28;20642;-84
2023/01/05 03:48:02;;;;;;;6.03;2.30;;;;;;;;;;5032503;28;20206;-84
2023/01/05 03:50:31;;;;;;;9.33;2.10;;;;;;;;;;5031596;28;20234;-84
2023/01/05 03:52:59;;;;;;;6.50;1.90;;;;;;;;;;5032148;28;20202;-84
2023/01/05 03:55:26;;;;;;;10.60;2.10;;;;;;;;;;5031843;28;20237;-84
2023/01/05 03:57:53;;;;;;;13.00;3.50;;;;;;;;;;5032416;28;20207;-84
2023/01/05 04:00:21;;;;;;;6.70;2.80;;;;;;;;;;5031978;28;20227;-84
2023/01/05 04:02:48;;;;;;;6.87;2.03;;;;;;;;;;5031932;28;20245;-84
2023/01/05 04:05:15;;;;;;;3.57;1.80;;;;;;;;;;5031901;28;20234;-84
2023/01/05 04:07:42;;;;;;;4.93;1.87;;;;;;;;;;5031785;28;20214;-85
2023/01/05 04:10:10;;;;;;;6.83;1.80;;;;;;;;;;5031697;28;20237;-84
2023/01/05 04:12:37;;;;;;;8.17;2.10;;;;;;;;;;5031742;28;20655;-84
2023/01/05 04:15:05;;;;;;;6.83;2.27;;;;;;;;;;5031670;28;20203;-84
2023/01/05 04:17:32;;;;;;;8.57;2.10;;;;;;;;;;5031693;28;20210;-85
2023/01/05 04:19:59;;;;;;;5.97;2.53;;;;;;;;;;5032030;28;20591;-81
2023/01/05 04:22:26;;;;;;;7.20;2.80;;;;;;;;;;5030958;28;20245;-81
2023/01/05 04:24:53;;;;;;;10.13;2.47;;;;;;;;;;5031701;28;20202;-81
2023/01/05 04:27:21;;;;;;;9.43;2.60;;;;;;;;;;5031073;28;20234;-81
2023/01/05 04:29:48;;;;;;;9.53;2.50;;;;;;;;;;5031062;28;20558;-80
2023/01/05 04:32:15;;;;;;;8.27;2.20;;;;;;;;;;5031022;28;20231;-81
2023/01/05 04:34:42;;;;;;;4.80;2.27;;;;;;;;;;5030630;28;20218;-81
2023/01/05 04:37:10;;;;;;;9.90;2.57;;;;;;;;;;5030987;28;20244;-81
2023/01/05 04:39:37;;;;;;;6.97;2.33;;;;;;;;;;5031142;28;20235;-81
2023/01/05 04:42:04;;;;;;;7.90;2.60;;;;;;;;;;5030971;28;20288;-80
2023/01/05 04:44:32;;;;;;;7.80;2.47;;;;;;;;;;5031353;28;20207;-81
2023/01/05 04:46:59;;;;;;;6.27;2.50;;;;;;;;;;5030769;28;20242;-81
2023/01/05 04:49:26;;;;;;;5.43;2.60;;;;;;;;;;5030827;28;20218;-81
2023/01/05 04:51:53;;;;;;;8.13;2.30;;;;;;;;;;5030713;28;20308;-80
2023/01/05 04:54:20;;;;;;;3.23;2.10;;;;;;;;;;5031378;28;20195;-80
2023/01/05 04:56:47;;;;;;;10.60;2.70;;;;;;;;;;5030503;28;20233;-80
2023/01/05 04:59:14;;;;;;;7.70;2.90;;;;;;;;;;5031248;28;20639;-81
2023/01/05 05:01:42;;;;;;;5.83;2.23;;;;;;;;;;5030869;28;20281;-81
2023/01/05 05:04:10;;;;;;;8.20;2.30;;;;;;;;;;5031033;28;20248;-81
2023/01/05 05:06:37;;;;;;;8.07;2.83;;;;;;;;;;5030881;28;20242;-81
2023/01/05 05:09:04;;;;;;;13.80;3.03;;;;;;;;;;5030872;28;20226;-81
2023/01/05 05:11:32;;;;;;;9.83;2.70;;;;;;;;;;5030859;28;20234;-81
2023/01/05 05:13:59;;;;;;;8.27;2.33;;;;;;;;;;5030841;28;20207;-81
2023/01/05 05:16:26;;;;;;;8.43;2.60;;;;;;;;;;5030852;28;20234;-81
2023/01/05 05:18:54;;;;;;;5.03;2.33;;;;;;;;;;5030339;28;20246;-81
2023/01/05 05:21:21;;;;;;;8.20;3.00;;;;;;;;;;5030856;28;20230;-81
2023/01/05 05:23:48;;;;;;;10.03;2.43;;;;;;;;;;5030927;28;20219;-81
2023/01/05 05:26:16;;;;;;;8.50;2.70;;;;;;;;;;5034550;28;20249;-81
2023/01/05 05:28:43;;;;;;;13.10;3.90;;;;;;;;;;5034679;28;20233;-80
2023/01/05 05:31:10;;;;;;;8.80;2.30;;;;;;;;;;5034334;28;20238;-81
2023/01/05 05:33:37;;;;;;;9.53;2.60;;;;;;;;;;5034450;28;20209;-81
2023/01/05 05:36:06;;;;;;;9.63;2.57;;;;;;;;;;5014374;28;20832;-81
2023/01/05 05:38:33;;;;;;;7.13;2.50;;;;;;;;;;5014539;28;20224;-80
2023/01/05 05:41:00;;;;;;;6.60;2.57;;;;;;;;;;5014270;28;20231;-81
2023/01/05 05:43:27;;;;;;;14.40;3.23;;;;;;;;;;5014922;28;20218;-81
2023/01/05 05:45:54;;;;;;;10.43;2.77;;;;;;;;;;5014130;28;20231;-81
2023/01/05 05:48:21;;;;;;;9.57;2.70;;;;;;;;;;5015111;28;20235;-81
2023/01/05 05:50:48;;;;;;;6.50;2.10;;;;;;;;;;5014054;28;20269;-81
2023/01/05 05:53:17;;;;;;;11.17;2.97;;;;;;;;;;5014720;28;20679;-81
2023/01/05 05:55:44;;;;;;;7.20;2.60;;;;;;;;;;5014003;28;20230;-81
2023/01/05 05:58:11;;;;;;;8.80;2.67;;;;;;;;;;5014302;28;20218;-81
2023/01/05 06:00:38;;;;;;;5.73;2.77;;;;;;;;;;5014075;28;20241;-81
2023/01/05 06:03:05;;;;;;;9.03;2.57;;;;;;;;;;5014479;28;20626;-81
2023/01/05 06:05:32;;;;;;;8.13;2.40;;;;;;;;;;5029821;28;20234;-81
2023/01/05 06:07:59;;;;;;;9.73;2.57;;;;;;;;;;5033939;28;20576;-81
2023/01/05 06:10:28;;;;;;;5.43;2.20;;;;;;;;;;5033632;28;20242;-80
2023/01/05 06:12:55;;;;;;;9.40;2.53;;;;;;;;;;5033714;28;20211;-79
2023/01/05 06:15:22;;;;;;;8.23;2.70;;;;;;;;;;5033231;28;20242;-80
2023/01/05 06:17:49;;;;;;;6.23;2.30;;;;;;;;;;5033594;28;20214;-79
2023/01/05 06:20:17;;;;;;;5.97;2.10;;;;;;;;;;5032859;28;20231;-79
2023/01/05 06:22:44;;;;;;;8.50;2.80;;;;;;;;;;5034101;28;20215;-80
2023/01/05 06:25:11;;;;;;;9.23;2.60;;;;;;;;;;5033782;28;20219;-80
2023/01/05 06:27:40;;;;;;;5.80;2.00;;;;;;;;;;5033857;28;20230;-79
2023/01/05 06:30:07;;;;;;;6.73;2.57;;;;;;;;;;5033388;28;20233;-80
2023/01/05 06:32:34;;;;;;;7.87;2.70;;;;;;;;;;5033556;28;20578;-79
2023/01/05 06:35:01;;;;;;;5.90;2.17;;;;;;;;;;5033071;28;20198;-79
2023/01/05 06:37:28;;;;;;;9.63;2.53;;;;;;;;;;5032921;28;20226;-79
2023/01/05 06:39:55;;;;;;;7.87;2.60;;;;;;;;;;5033440;28;20253;-79
2023/01/05 06:42:23;;;;;;;11.83;3.10;;;;;;;;;;5033265;28;20313;-79
2023/01/05 06:44:51;;;;;;;5.73;2.27;;;;;;;;;;5033391;28;20216;-79
2023/01/05 06:47:19;;;;;;;9.03;2.30;;;;;;;;;;5032612;28;20234;-79
2023/01/05 06:49:46;;;;;;;12.30;3.10;;;;;;;;;;5032668;28;20219;-79
2023/01/05 06:52:13;;;;;;;8.57;2.50;;;;;;;;;;5032987;28;20231;-79
2023/01/05 06:54:40;;;;;;;5.70;2.93;;;;;;;;;;5032860;28;20210;-79
2023/01/05 06:57:07;;;;;;;6.90;2.20;;;;;;;;;;5032732;28;20288;-79
2023/01/05 06:59:34;;;;;;;6.23;2.80;;;;;;;;;;5032575;28;20284;-78
2023/01/05 07:02:02;;;;;;;7.30;2.53;;;;;;;;;;5032720;28;20737;-78
2023/01/05 07:04:29;;;;;;;8.77;2.90;;;;;;;;;;5032418;28;20207;-78
2023/01/05 07:06:56;;;;;;;9.27;2.57;;;;;;;;;;5032562;28;20289;-78
2023/01/05 07:09:24;;;;;;;13.07;2.80;;;;;;;;;;5032871;28;20695;-78
2023/01/05 07:11:51;;;;;;;12.90;2.70;;;;;;;;;;5032618;28;20907;-79
2023/01/05 07:14:18;;;;;;;4.90;2.23;;;;;;;;;;5032939;28;20206;-79
2023/01/05 07:16:45;;;;;;;7.40;2.50;;;;;;;;;;5032203;28;20235;-80
2023/01/05 07:19:13;;;;;;;12.00;2.50;;;;;;;;;;5031948;28;20235;-78
2023/01/05 07:21:40;;;;;;;7.53;2.70;;;;;;;;;;5032517;28;20234;-78
2023/01/05 07:24:08;;;;;;;5.27;2.07;;;;;;;;;;5032751;28;20211;-79
2023/01/05 07:26:35;;;;;;;8.67;2.50;;;;;;;;;;5032192;28;20234;-78
2023/01/05 07:29:02;;;;;;;6.33;2.33;;;;;;;;;;5032609;28;20226;-79
2023/01/05 07:31:29;;;;;;;6.73;2.40;;;;;;;;;;5032124;28;20295;-78
2023/01/05 07:33:56;;;;;;;4.70;2.07;;;;;;;;;;5032865;28;20206;-78
2023/01/05 07:36:24;;;;;;;7.50;2.30;;;;;;;;;;5031609;28;20223;-78
2023/01/05 07:38:52;;;;;;;5.70;2.07;;;;;;;;;;5032050;28;20257;-79
2023/01/05 07:41:20;;;;;;;8.57;2.57;;;;;;;;;;5032489;28;20654;-78
2023/01/05 07:43:48;;;;;;;8.53;2.50;;;;;;;;;;5032534;28;20211;-79
2023/01/05 07:46:16;;;;;;;10.77;2.50;;;;;;;;;;5032241;28;20238;-79
2023/01/05 07:48:43;;;;;;;5.27;2.20;;;;;;;;;;5032049;28;20226;-79
2023/01/05 07:51:10;;;;;;;7.70;2.43;;;;;;;;;;5031896;28;20231;-79
2023/01/05 07:53:39;;;;;;;7.67;2.53;;;;;;;;;;5032641;28;20674;-79
2023/01/05 07:56:06;;;;;;;8.33;2.40;;;;;;;;;;5032411;28;20241;-79
2023/01/05 07:58:34;;;;;;;5.37;3.13;;;;;;;;;;5032118;28;20302;-79
2023/01/05 08:01:04;;;;;;;7.40;2.53;;;;;;;;;;5031747;28;20719;-79
2023/01/05 08:03:31;;;;;;;4.30;2.43;;;;;;;;;;5032264;28;20230;-79
2023/01/05 08:05:58;;;;;;;8.97;2.30;;;;;;;;;;5031451;28;20230;-79
2023/01/05 08:08:25;;;;;;;6.47;2.50;;;;;;;;;;5031940;28;20233;-79
2023/01/05 08:10:53;;;;;;;5.57;2.00;;;;;;;;;;5031879;28;20238;-78
2023/01/05 08:16:05;;;;;;;8.10;2.30;;;;;;;;;;5031813;28;20238;-79
2023/01/05 08:18:32;;;;;;;6.07;2.20;;;;;;;;;;5031739;28;20226;-79
2023/01/05 08:21:03;;;;;;;5.63;2.27;;;;;;;;;;5031577;28;20226;-79
2023/01/05 08:23:30;;;;;;;7.73;2.47;;;;;;;;;;5032016;28;20210;-79
2023/01/05 08:26:03;;;;;;;8.27;2.40;;;;;;;;;;5031480;28;20241;-79
2023/01/05 08:28:30;;;;;;;11.00;2.63;;;;;;;;;;5030759;28;20238;-78
2023/01/05 08:31:00;;;;;;;3.33;2.03;;;;;;;;;;5031367;28;20238;-79
2023/01/05 08:33:28;;;;;;;7.43;2.43;;;;;;;;;;5026721;28;20195;-79
2023/01/05 08:35:55;;;;;;;11.83;2.90;;;;;;;;;;5031153;28;20261;-79
2023/01/05 08:38:22;;;;;;;5.73;1.77;;;;;;;;;;5022968;28;20222;-79
2023/01/05 08:40:49;;;;;;;8.67;2.67;;;;;;;;;;5021996;28;20238;-79
2023/01/05 08:43:17;;;;;;;9.80;2.97;;;;;;;;;;5018040;28;20211;-79
2023/01/05 08:45:49;;;;;;;8.77;2.43;;;;;;;;;;5012652;28;20242;-78
2023/01/05 08:48:16;;;;;;;8.63;2.23;;;;;;;;;;5031618;28;20258;-79
2023/01/05 08:50:43;;;;;;;11.10;2.80;;;;;;;;;;5031340;28;20714;-78
2023/01/05 08:53:10;;;;;;;6.07;2.10;;;;;;;;;;5023233;28;20269;-78
2023/01/05 08:55:37;;;;;;;15.23;3.73;;;;;;;;;;5038323;28;20295;-77
2023/01/05 08:58:05;;;;;;;9.37;2.20;;;;;;;;;;5041499;28;20198;-78
2023/01/05 09:00:33;;;;;;;9.00;3.13;;;;;;;;;;5034726;28;20238;-79
2023/01/05 09:03:00;;;;;;;10.63;2.90;;;;;;;;;;5042418;28;20219;-78
2023/01/05 09:05:27;;;;;;;11.60;2.60;;;;;;;;;;5034733;28;20234;-80
2023/01/05 09:07:55;;;;;;;7.87;2.87;;;;;;;;;;5018359;28;20296;-79
2023/01/05 09:10:22;;;;;;;6.53;2.80;;;;;;;;;;5014987;28;20782;-79
2023/01/05 09:12:49;;;;;;;7.30;2.93;;;;;;;;;;5015487;28;20731;-80
2023/01/05 09:15:16;;;;;;;7.00;3.10;;;;;;;;;;5015279;28;20203;-79
2023/01/05 09:17:45;;;;;;;7.63;2.67;;;;;;;;;;5015015;28;20268;-79
2023/01/05 09:20:12;;;;;;;10.33;2.93;;;;;;;;;;5014402;28;20266;-80
2023/01/05 09:22:39;;;;;;;8.13;2.83;;;;;;;;;;5015340;28;20215;-80
2023/01/05 09:25:06;;;;;;;10.90;2.60;;;;;;;;;;5021312;28;20207;-80
2023/01/05 09:27:33;;;;;;;8.43;3.00;;;;;;;;;;5034454;28;20907;-80
2023/01/05 09:30:00;;;;;;;6.67;1.80;;;;;;;;;;5034127;28;20729;-79
2023/01/05 09:32:27;;;;;;;10.37;2.80;;;;;;;;;;5016031;28;20242;-78
2023/01/05 09:34:56;;;;;;;5.47;2.33;;;;;;;;;;5019405;28;20202;-78
2023/01/05 09:37:23;;;;;;;11.03;2.83;;;;;;;;;;5034216;28;20238;-79
2023/01/05 09:39:50;;;;;;;7.30;2.27;;;;;;;;;;5034271;28;20233;-79
2023/01/05 09:42:19;;;;;;;5.57;2.23;;;;;;;;;;5033923;28;20653;-79
2023/01/05 09:44:48;;;;;;;8.47;2.67;;;;;;;;;;5034455;28;20703;-79
2023/01/05 09:47:18;;;;;;;7.73;2.73;;;;;;;;;;5027899;28;20230;-79
2023/01/05 09:49:45;;;;;;;7.73;2.93;;;;;;;;;;5015446;28;20233;-78
2023/01/05 09:52:14;;;;;;;4.77;2.30;;;;;;;;;;5014749;28;20620;-79
2023/01/05 09:54:42;;;;;;;4.97;2.63;;;;;;;;;;5015248;28;20214;-79
2023/01/05 09:57:15;;;;;;;9.07;2.83;;;;;;;;;;5026736;28;20226;-79
2023/01/05 09:59:43;;;;;;;10.63;3.17;;;;;;;;;;5034645;28;20241;-80
2023/01/05 10:02:15;;;;;;;9.83;2.83;;;;;;;;;;5032206;28;20234;-80
2023/01/05 10:04:42;;;;;;;4.73;2.13;;;;;;;;;;5034594;28;20576;-80
2023/01/05 10:07:17;;;;;;;4.90;2.10;;;;;;;;;;5034332;28;20234;-81
2023/01/05 10:09:46;;;;;;;8.27;2.60;;;;;;;;;;5031244;28;20222;-79
2023/01/05 10:15:05;;;;;;;11.50;3.23;;;;;;;;;;5013087;28;20784;-82
2023/01/05 10:17:34;;;;;;;7.07;2.13;;;;;;;;;;5023114;28;20215;-80
2023/01/05 10:20:02;;;;;;;6.23;2.83;;;;;;;;;;5040862;28;20234;-82
2023/01/05 10:22:39;;;;;;;5.60;2.50;;;;;;;;;;5032985;28;20227;-80
2023/01/05 10:25:13;;;;;;;9.00;2.77;;;;;;;;;;5033781;28;20278;-80
2023/01/05 10:27:42;;;;;;;10.03;3.00;;;;;;;;;;5023324;28;20242;-81
2023/01/05 10:30:14;;;;;;;12.77;2.90;;;;;;;;;;5013504;28;20231;-81
2023/01/05 10:32:46;;;;;;;8.03;2.47;;;;;;;;;;5014142;28;20211;-81
2023/01/05 10:35:23;;;;;;;8.70;2.57;;;;;;;;;;5013800;28;20234;-81
2023/01/05 10:37:59;;;;;;;10.67;2.57;;;;;;;;;;5014611;28;20215;-81
2023/01/05 10:40:31;;;;;;;9.63;2.90;;;;;;;;;;5031664;28;20246;-79
2023/01/05 10:43:09;;;;;;;10.13;2.83;;;;;;;;;;5025445;28;20204;-79
2023/01/05 10:45:37;;;;;;;11.33;3.23;;;;;;;;;;5012791;28;20277;-78
2023/01/05 10:48:04;;;;;;;9.90;2.93;;;;;;;;;;5027876;28;20233;-77
2023/01/05 10:50:34;;;;;;;11.73;2.50;;;;;;;;;;5032180;28;20230;-80
2023/01/05 10:53:04;;;;;;;14.13;3.60;;;;;;;;;;5032820;28;20784;-80
2023/01/05 10:55:32;;;;;;;4.93;2.70;;;;;;;;;;5032102;28;20234;-79
2023/01/05 10:57:59;;;;;;;9.53;3.03;;;;;;;;;;5032421;28;20207;-80
2023/01/05 11:00:42;;;;;;;11.63;3.80;;;;;;;;;;5013846;28;20327;-80
2023/01/05 11:03:13;;;;;;;8.43;2.90;;;;;;;;;;5012629;28;20211;-80
2023/01/05 11:05:44;;;;;;;9.73;2.67;;;;;;;;;;5012107;28;20227;-80
2023/01/05 11:08:14;;;;;;;9.53;2.73;;;;;;;;;;5011921;28;20729;-79
2023/01/05 11:10:50;;;;;;;12.27;3.00;;;;;;;;;;5025041;28;20722;-80
2023/01/05 11:13:19;;;;;;;11.70;3.43;;;;;;;;;;5032612;28;20210;-80
2023/01/05 11:15:50;;;;;;;10.03;2.83;;;;;;;;;;5031818;28;20280;-79
2023/01/05 11:18:23;;;;;;;11.43;3.87;;;;;;;;;;5031070;28;20210;-80
2023/01/05 11:21:05;;;;;;;10.63;2.93;;;;;;;;;;5031374;28;20269;-79
2023/01/05 11:23:35;;;;;;;9.03;3.10;;;;;;;;;;5031356;28;20213;-80
2023/01/05 11:26:19;;;;;;;10.67;3.10;;;;;;;;;;5031887;28;20254;-80
2023/01/05 11:28:57;;;;;;;10.20;2.97;;;;;;;;;;5031268;28;20238;-80
2023/01/05 11:31:26;;;;;;;7.90;2.97;;;;;;;;;;5027914;28;20237;-80
2023/01/05 11:33:56;;;;;;;7.30;2.83;;;;;;;;;;5024127;28;20200;-80
2023/01/05 11:36:23;;;;;;;12.17;3.47;;;;;;;;;;5018237;28;20235;-80
2023/01/05 11:38:52;;;;;;;10.60;3.60;;;;;;;;;;5028424;28;20226;-80
2023/01/05 11:41:22;;;;;;;12.03;2.63;;;;;;;;;;5031047;28;20238;-79
2023/01/05 11:43:49;;;;;;;15.27;3.57;;;;;;;;;;5031306;28;20681;-79
2023/01/05 11:46:18;;;;;;;8.83;2.87;;;;;;;;;;5030601;28;20234;-79
2023/01/05 11:48:51;;;;;;;8.30;3.27;;;;;;;;;;5016116;28;20278;-79
2023/01/05 11:51:33;;;;;;;11.43;2.97;;;;;;;;;;5017712;28;20234;-79
2023/01/05 11:54:00;;;;;;;10.97;3.40;;;;;;;;;;5028529;28;20199;-79
2023/01/05 11:56:29;;;;;;;8.43;2.67;;;;;;;;;;5027373;28;20234;-79
2023/01/05 11:58:57;;;;;;;8.03;2.97;;;;;;;;;;5022284;28;20219;-79
2023/01/05 12:01:39;;;;;;;7.73;2.97;;;;;;;;;;5030059;28;20254;-79
2023/01/05 12:04:20;;;;;;;10.93;3.40;;;;;;;;;;5031026;28;20206;-79
2023/01/05 12:07:01;;;;;;;14.53;3.93;;;;;;;;;;5030164;28;20257;-80
2023/01/05 12:09:31;;;;;;;8.97;2.63;;;;;;;;;;5024037;28;20234;-79
2023/01/05 12:12:06;;;;;;;13.10;3.90;;;;;;;;;;5011063;28;20254;-79
2023/01/05 12:14:40;;;;;;;8.13;2.57;;;;;;;;;;5017712;28;20205;-78
2023/01/05 12:17:10;;;;;;;13.93;3.70;;;;;;;;;;5029391;28;20234;-79
2023/01/05 12:19:42;;;;;;;12.67;3.70;;;;;;;;;;5037588;28;20575;-78
2023/01/05 12:22:26;;;;;;;13.33;3.20;;;;;;;;;;5012429;28;20731;-78
2023/01/05 12:25:00;;;;;;;13.20;3.23;;;;;;;;;;5022566;28;20582;-79
2023/01/05 12:27:33;;;;;;;12.10;3.77;;;;;;;;;;5028034;28;20743;-79
2023/01/05 12:30:30;;;;;;;10.23;3.20;;;;;;;;;;5016874;28;20237;-79
2023/01/05 12:33:11;;;;;;;11.90;3.07;;;;;;;;;;4968799;28;20237;-79
2023/01/05 12:35:46;;;;;;;11.67;3.10;;;;;;;;;;5021709;28;20230;-79
2023/01/05 12:38:20;;;;;;;12.53;3.57;;;;;;;;;;5030294;28;20206;-79
2023/01/05 12:40:55;;;;;;;8.23;3.17;;;;;;;;;;5030190;28;20237;-79
2023/01/05 12:43:29;;;;;;;6.57;2.47;;;;;;;;;;5030278;28;20206;-79
2023/01/05 12:46:06;;;;;;;15.13;3.50;;;;;;;;;;5011748;28;20238;-79
2023/01/05 12:48:35;;;;;;;11.03;2.93;;;;;;;;;;5010292;28;20239;-79
2023/01/05 12:51:06;;;;;;;9.87;2.67;;;;;;;;;;5010227;28;20237;-79
2023/01/05 12:53:38;;;;;;;8.67;2.77;;;;;;;;;;5010332;28;20216;-78
2023/01/05 12:56:11;;;;;;;9.93;2.70;;;;;;;;;;5010373;28;20615;-78
2023/01/05 12:58:41;;;;;;;8.97;2.67;;;;;;;;;;5009742;28;20223;-79
2023/01/05 13:01:15;;;;;;;10.87;2.87;;;;;;;;;;5009962;28;20235;-78
2023/01/05 13:03:45;;;;;;;13.20;2.73;;;;;;;;;;5010411;28;20215;-78
2023/01/05 13:06:14;;;;;;;9.93;3.07;;;;;;;;;;5010302;28;20599;-79
2023/01/05 13:08:44;;;;;;;8.37;2.97;;;;;;;;;;5012729;28;20237;-79
2023/01/05 13:11:15;;;;;;;13.30;2.90;;;;;;;;;;5018069;28;20230;-79
2023/01/05 13:13:46;;;;;;;12.03;3.57;;;;;;;;;;5029436;28;20202;-79
2023/01/05 13:16:14;;;;;;;12.70;3.17;;;;;;;;;;5030234;28;20453;-80
2023/01/05 13:18:43;;;;;;;10.20;3.50;;;;;;;;;;5029238;28;20612;-79
2023/01/05 13:21:10;;;;;;;8.07;3.23;;;;;;;;;;5029862;28;20238;-79
2023/01/05 13:23:38;;;;;;;10.30;2.97;;;;;;;;;;5030253;28;20225;-79
2023/01/05 13:26:06;;;;;;;9.10;2.77;;;;;;;;;;5025836;28;20236;-80
2023/01/05 13:28:34;;;;;;;15.87;3.60;;;;;;;;;;5021603;28;20733;-79
2023/01/05 13:31:11;;;;;;;7.43;2.70;;;;;;;;;;5011598;28;20231;-80
2023/01/05 13:33:52;;;;;;;6.63;3.20;;;;;;;;;;5010434;28;20636;-79
2023/01/05 13:36:25;;;;;;;8.57;2.57;;;;;;;;;;5010684;28;20922;-79
2023/01/05 13:39:01;;;;;;;10.97;2.87;;;;;;;;;;5009889;28;20228;-79
2023/01/05 13:41:43;;;;;;;14.27;3.13;;;;;;;;;;5019221;28;20230;-78
2023/01/05 13:44:18;;;;;;;14.83;3.13;;;;;;;;;;5030209;28;20217;-79
2023/01/05 13:47:03;;;;;;;10.03;2.60;;;;;;;;;;5033282;28;20284;-79
2023/01/05 13:49:51;;;;;;;6.80;2.57;;;;;;;;;;5032897;28;20230;-80
2023/01/05 13:52:22;;;;;;;6.60;2.60;;;;;;;;;;5042321;28;20229;-79
2023/01/05 13:54:51;;;;;;;8.30;2.40;;;;;;;;;;5034932;28;20203;-79
2023/01/05 13:57:21;;;;;;;10.63;3.03;;;;;;;;;;5033432;28;20269;-80
2023/01/05 13:59:50;;;;;;;10.10;4.20;;;;;;;;;;5032180;28;20786;-80
2023/01/05 14:02:26;;;;;;;9.43;2.33;;;;;;;;;;5033051;28;20231;-80
2023/01/05 14:04:53;;;;;;;11.27;2.97;;;;;;;;;;5033838;28;20233;-80
2023/01/05 14:07:21;;;;;;;7.33;2.63;;;;;;;;;;5033566;28;20322;-80
2023/01/05 14:09:49;;;;;;;6.57;2.40;;;;;;;;;;5031945;28;20254;-80
2023/01/05 14:12:27;;;;;;;5.77;2.80;;;;;;;;;;5032897;28;20234;-80
2023/01/05 14:15:04;;;;;;;8.83;2.83;;;;;;;;;;5033009;28;20225;-80
2023/01/05 14:17:50;;;;;;;9.20;2.40;;;;;;;;;;5027851;28;20219;-80
2023/01/05 14:20:35;;;;;;;7.67;2.33;;;;;;;;;;5013056;28;20242;-81
2023/01/05 14:23:04;;;;;;;9.60;2.37;;;;;;;;;;5013242;28;20246;-81
2023/01/05 14:25:47;;;;;;;9.63;3.57;;;;;;;;;;5013333;28;20237;-81
2023/01/05 14:28:40;;;;;;;9.10;2.90;;;;;;;;;;5013535;28;20786;-80
2023/01/05 14:31:29;;;;;;;8.23;2.83;;;;;;;;;;5012862;28;20239;-79
2023/01/05 14:33:59;;;;;;;14.47;3.30;;;;;;;;;;5006480;28;20215;-79
2023/01/05 14:36:31;;;;;;;9.40;2.33;;;;;;;;;;5012278;28;20339;-79
2023/01/05 14:38:58;;;;;;;8.10;2.40;;;;;;;;;;5011492;28;20223;-79
2023/01/05 14:41:26;;;;;;;12.33;2.93;;;;;;;;;;5011999;28;20239;-80
2023/01/05 14:43:56;;;;;;;8.77;2.93;;;;;;;;;;5012809;28;20218;-81
2023/01/05 14:46:23;;;;;;;13.40;3.40;;;;;;;;;;5011910;28;20235;-80
2023/01/05 14:49:00;;;;;;;10.97;3.07;;;;;;;;;;5026840;28;20267;-80
2023/01/05 14:51:29;;;;;;;18.13;3.67;;;;;;;;;;5031533;28;20284;-80
2023/01/05 14:53:57;;;;;;;14.63;3.30;;;;;;;;;;5031606;28;20218;-80
2023/01/05 14:56:25;;;;;;;10.07;2.80;;;;;;;;;;5031136;28;20254;-80
2023/01/05 14:59:02;;;;;;;13.40;2.93;;;;;;;;;;5031044;28;20231;-80
2023/01/05 15:01:31;;;;;;;9.33;2.87;;;;;;;;;;5030980;28;20245;-80
2023/01/05 15:04:01;;;;;;;12.57;3.30;;;;;;;;;;5031510;28;20215;-80
2023/01/05 15:06:35;;;;;;;10.77;3.17;;;;;;;;;;5031446;28;20239;-80
2023/01/05 15:09:20;;;;;;;5.23;2.33;;;;;;;;;;5031329;28;20242;-80
2023/01/05 15:12:04;;;;;;;8.33;3.33;;;;;;;;;;5031930;28;20238;-80
2023/01/05 15:14:49;;;;;;;12.53;3.93;;;;;;;;;;5031572;28;20212;-80
2023/01/05 15:17:26;;;;;;;10.13;3.20;;;;;;;;;;5025342;28;20223;-79
2023/01/05 15:20:03;;;;;;;12.50;3.40;;;;;;;;;;5011195;28;20239;-79
2023/01/05 15:22:43;;;;;;;15.00;3.10;;;;;;;;;;5012728;28;20841;-79
2023/01/05 15:25:41;;;;;;;12.77;3.77;;;;;;;;;;5012431;28;20215;-80
2023/01/05 15:28:23;;;;;;;12.10;3.50;;;;;;;;;;4951088;29;20276;-79
2023/01/05 15:31:08;;;;;;;9.87;3.10;;;;;;;;;;5002715;28;20711;-80
2023/01/05 15:33:38;;;;;;;11.30;2.93;;;;;;;;;;5000932;28;20257;-79
2023/01/05 15:36:06;;;;;;;8.60;3.13;;;;;;;;;;5010769;28;20285;-79